Windhoek, Namibia
Current Conditions -  °F | °C
As of 11:00 AM on Saturday 25 Oct 2014 (Local Time) from FYWE Reporting Station
Clear Clear  
Wind Chill: 29°   Ceiling: Unl
Heat Index: 29°   Visibility: 6mi
Dew Point: -6°   Wind: 7mph
Humidity: 10%   Direction: 330°NNW
Pressure: 30.15"   Gusts: NA
Location:  22.56°S, 17.09°E
Report Text: FYWE 251000Z 33006KT CAVOK 29/M06 Q1021
Loading
Personal Weather Stations






























Interactive Weather Map New forecast layout! Learn more

10-Day Weather Forecast

Advertisements
Track Severe Weather on mobile